Terminal Aerodrome Forecast
Issued by NWS Cleveland, OH

Home | Current Version | Previous Version | Graphics & Text | Print | Product List | Glossary On
Versions: 1 2 3 4 5 6 7 8 9 10 11 12 13 14 15 16 17 18 19 20 21 22 23 24 25 26 27 28 29 30 31 32 33 34 35
000
FTUS41 KCLE 241700
TAFCLE
TAF
KCLE 241740Z 2418/2524 25012KT P6SM OVC015
     FM250600 25008KT P6SM VCSH OVC015
     FM251100 02005KT 5SM -SHSN BR OVC008
     FM251400 04006KT 1 1/2SM -SN BR OVC008=

USA.gov is the U.S. government's official web portal to all federal, state and local government web resources and services.